DAOI

Details ICAO DAOI (QAS)
Name ECH CHELIFF
Region Algeria
Timezone Africa/Algiers (UTC+1.0)
Plans Departing 1
Arriving 6
Stats Elevation 463 ft / 141 m (AMSL)
Location 36.212659° 1.331767°
Runways 1
Magnetic Variation 0.628° E
Sunrise 2017-12-18 07:01:46 UTC / 2017-12-18 08:01:46 Local
Sunset 2017-12-18 16:43:30 UTC / 2017-12-18 17:43:30 Local
Advertisement - Login to hide

Runways

ID Width Length Bearing (true) Bearing (mag) Surface Threshold Offset Overrun Length
07 98 ft / 30 m 5,397 ft / 1,645 m 66.29° 65.66° Asphalt 0 ft / 0 m 0 ft / 0 m
25 98 ft / 30 m 5,397 ft / 1,645 m 246.30° 245.67° Asphalt 0 ft / 0 m 0 ft / 0 m

Map

Weather


0- 5 10 15 20 25 30 35+ Temperature / ° C

Clouds and Precipitation
Forecast for 2017-12-18 12:00 UTC. Updated 3 minutes ago

Ground ~20,000 ft ~40,000 ft Winds

METAR

DAOI 181100Z 07004KT 9999 FEW026 10/06 Q1031

TAF

TAF DAOI 180500Z 1806/1906 VRB02KT CAVOK BECMG 1822/1824 20012KT BECMG 1900/1903 9999 SCT020 SCT030

Frequencies

Tower 119.00 MHz TWR
Warning: Do not use this data for real-world aviation or navigation. No guarantee of current accuracy is given.